Portada
METAR-TAF:

METAR-TAF

Aeroports :

Takamatsu, Japó

latitud: 34-13N, longitud: 134-01E, altitud: 185 m

Observació

L'informe es va fer fa 3 hores i 59 minuts, a les 12:00 UTC
Vent 6 kt del Sud-Est
Temperatura 26°C
Humitat 89%
Pressió 1012 hPa
Visibilitat 10 km o més
Escasses núvols a una alçada de 3000 ft
Cel ennuvolat

METAR: RJOT 201200Z 14006KT 9999 FEW030 BKN/// 26/24 Q1012

Hora: 00:59 (15:59 UTC)

Pronòstic

L'informe es va fer fa 4 hores i 54 minuts, a les 11:05 UTC
Pronòstic vàlid del 20 a les 12 UTC al 21 a les 18 UTC
Vent 4 kt del Sud/Sud-Est
Visibilitat 10 km o més
Escasses núvols a una alçada de 2500 ft
Evolucionant progressivament
l' 20 a les 20 UTC al 20 a les 22 UTC
Vent 8 kt del Oest

TAF: RJOT 201105Z 2012/2118 15004KT 9999 FEW025 BECMG 2020/2022 27008KT

Observacions i pronòstics meteorològics de més de 4000 aeroports (METAR i TAF).

Les estacions disponibles són els punts grocs i vermells al mapa.

Posi el ratolí al punt desitjat per veure el nom de l'estació.

Feu clic per veure les observacions i els pronòstics meteorològics.

Per canviar el mapa: feu clic els botons verds amb una creu de color negre per apropar; al botó verd amb un guió per allunyar la imatge; o en les fletxes verdes per a mapes adjacents.


METAR-TAF: